createdAt,value
2022-11-10T00:00:35.999Z,12.21
2022-11-10T00:03:03.148Z,12.18
2022-11-10T00:05:24.378Z,12.11
2022-11-10T00:07:45.629Z,12.11
2022-11-10T00:10:09.447Z,12.03
2022-11-10T00:12:30.775Z,11.98
2022-11-10T00:15:09.525Z,11.95
2022-11-10T00:17:31.149Z,11.88
2022-11-10T00:19:54.250Z,11.85
2022-11-10T00:22:15.670Z,11.83
2022-11-10T00:24:37.092Z,11.82
2022-11-10T00:26:58.807Z,11.77
2022-11-10T00:29:20.789Z,11.77
2022-11-10T00:31:42.475Z,11.75
2022-11-10T00:34:03.697Z,11.69
2022-11-10T00:36:26.469Z,11.58
2022-11-10T00:38:50.838Z,11.54
2022-11-10T00:41:12.954Z,11.47
2022-11-10T00:43:34.949Z,11.41
2022-11-10T00:45:56.861Z,11.40
2022-11-10T00:48:18.212Z,11.40
2022-11-10T00:50:39.836Z,11.35
2022-11-10T00:53:02.644Z,11.34
2022-11-10T00:55:24.103Z,11.34
2022-11-10T00:57:45.674Z,11.30
2022-11-10T01:00:08.428Z,11.26
2022-11-10T01:02:29.880Z,11.24
2022-11-10T01:04:51.120Z,11.23
2022-11-10T01:07:12.624Z,11.22
2022-11-10T01:09:35.454Z,11.14
2022-11-10T01:11:57.028Z,11.12
2022-11-10T01:14:18.437Z,11.14
2022-11-10T01:16:39.845Z,11.20
2022-11-10T01:19:03.552Z,11.18
2022-11-10T01:21:25.848Z,11.15
2022-11-10T01:23:47.339Z,11.17
2022-11-10T01:26:10.401Z,11.18
2022-11-10T01:28:32.765Z,11.14
2022-11-10T01:30:58.276Z,11.13
2022-11-10T01:33:20.064Z,11.10
2022-11-10T01:35:41.761Z,11.09
2022-11-10T01:38:03.250Z,11.06
2022-11-10T01:40:24.753Z,11.03
2022-11-10T01:42:51.541Z,10.98
2022-11-10T01:45:43.000Z,10.94
2022-11-10T01:48:08.519Z,10.83
2022-11-10T01:50:34.923Z,10.82
2022-11-10T01:53:00.527Z,10.76
2022-11-10T01:55:23.940Z,10.63
2022-11-10T01:57:48.229Z,10.63
2022-11-10T02:00:11.616Z,10.68
2022-11-10T02:02:38.822Z,10.72
2022-11-10T02:05:02.633Z,10.78
2022-11-10T02:07:25.049Z,10.80
2022-11-10T02:09:46.348Z,10.79
2022-11-10T02:12:08.030Z,10.78
2022-11-10T02:14:31.114Z,10.78
2022-11-10T02:16:52.791Z,10.75
2022-11-10T02:19:16.930Z,10.79
2022-11-10T02:21:39.765Z,10.72
2022-11-10T02:24:01.132Z,10.69
2022-11-10T02:26:25.472Z,10.68
2022-11-10T02:28:46.889Z,10.67
2022-11-10T02:31:09.335Z,10.64
2022-11-10T02:33:31.149Z,10.62
2022-11-10T02:35:52.787Z,10.60
2022-11-10T02:38:15.816Z,10.60
2022-11-10T02:40:37.157Z,10.56
2022-11-10T02:42:58.648Z,10.48
2022-11-10T02:45:20.163Z,10.46
2022-11-10T02:47:44.329Z,10.43
2022-11-10T02:50:05.993Z,10.42
2022-11-10T02:52:27.101Z,10.40
2022-11-10T02:54:49.858Z,10.42
2022-11-10T02:57:11.310Z,10.46
2022-11-10T02:59:32.779Z,10.47
2022-11-10T03:01:54.325Z,10.51
2022-11-10T03:04:15.858Z,10.50
2022-11-10T03:06:37.508Z,10.50
2022-11-10T03:08:59.105Z,10.46
2022-11-10T03:11:21.880Z,10.43
2022-11-10T03:14:00.431Z,10.41
2022-11-10T03:16:23.032Z,10.36
2022-11-10T03:18:44.649Z,10.38
2022-11-10T03:21:06.651Z,10.33
2022-11-10T03:23:28.378Z,10.27
2022-11-10T03:25:49.884Z,10.20
2022-11-10T03:28:13.706Z,10.17
2022-11-10T03:30:35.073Z,10.13
2022-11-10T03:32:56.553Z,10.12
2022-11-10T03:35:18.143Z,10.11
2022-11-10T03:37:41.785Z,10.08
2022-11-10T03:40:02.997Z,10.04
2022-11-10T03:42:24.447Z,10.05
2022-11-10T03:44:47.391Z,9.99
2022-11-10T03:47:09.080Z,10.00
2022-11-10T03:49:30.713Z,9.95
2022-11-10T03:51:52.246Z,9.94
2022-11-10T03:54:13.805Z,9.92
2022-11-10T03:56:35.271Z,9.89
2022-11-10T03:58:56.794Z,9.89
2022-11-10T04:01:19.828Z,9.89
2022-11-10T04:03:41.102Z,9.88
2022-11-10T04:06:20.241Z,9.87
2022-11-10T04:08:59.203Z,9.83
2022-11-10T04:11:34.912Z,9.82
2022-11-10T04:14:13.508Z,9.81
2022-11-10T04:16:36.411Z,9.82
2022-11-10T04:18:57.847Z,9.81
2022-11-10T04:21:19.336Z,9.79
2022-11-10T04:23:40.939Z,9.76
2022-11-10T04:26:23.548Z,9.79
2022-11-10T04:28:46.503Z,9.79
2022-11-10T04:31:08.134Z,9.76
2022-11-10T04:33:31.308Z,9.77
2022-11-10T04:35:52.860Z,9.75
2022-11-10T04:38:14.528Z,9.72
2022-11-10T04:40:36.018Z,9.71
2022-11-10T04:43:01.015Z,9.71
2022-11-10T04:45:22.908Z,9.71
2022-11-10T04:47:44.407Z,9.71
2022-11-10T04:50:08.050Z,9.73
2022-11-10T04:52:29.529Z,9.74
2022-11-10T04:54:51.123Z,9.72
2022-11-10T04:57:13.044Z,9.72
2022-11-10T04:59:34.276Z,9.75
2022-11-10T05:01:56.130Z,9.76
2022-11-10T05:04:17.290Z,9.78
2022-11-10T05:06:40.158Z,9.79
2022-11-10T05:09:01.489Z,9.78
2022-11-10T05:11:22.914Z,9.81
2022-11-10T05:13:44.439Z,9.81
2022-11-10T05:16:06.382Z,9.84
2022-11-10T05:18:27.983Z,9.82
2022-11-10T05:20:49.533Z,9.87
2022-11-10T05:23:29.871Z,9.86
2022-11-10T05:25:51.317Z,9.79
2022-11-10T05:28:13.831Z,9.81
2022-11-10T05:30:37.574Z,9.81
2022-11-10T05:32:59.709Z,9.83
2022-11-10T05:35:22.373Z,9.82
2022-11-10T05:37:43.685Z,9.82
2022-11-10T05:40:07.626Z,9.82
2022-11-10T05:42:29.117Z,9.83
2022-11-10T05:44:50.535Z,9.82
2022-11-10T05:47:12.192Z,9.84
2022-11-10T05:49:33.557Z,9.81
2022-11-10T05:51:55.012Z,9.81
2022-11-10T05:54:16.444Z,9.79
2022-11-10T05:56:39.017Z,9.77
2022-11-10T05:59:00.531Z,9.75
2022-11-10T06:01:21.990Z,9.75
2022-11-10T06:03:43.341Z,9.73
2022-11-10T06:06:05.156Z,9.74
2022-11-10T06:08:26.409Z,9.71
2022-11-10T06:10:47.851Z,9.71
2022-11-10T06:13:11.609Z,9.66
2022-11-10T06:15:33.081Z,9.60
2022-11-10T06:17:55.032Z,9.60
2022-11-10T06:20:18.153Z,9.59
2022-11-10T06:22:39.395Z,9.59
2022-11-10T06:25:01.040Z,9.60
2022-11-10T06:27:22.682Z,9.57
2022-11-10T06:29:45.476Z,9.57
2022-11-10T06:32:06.792Z,9.55
2022-11-10T06:34:28.937Z,9.56
2022-11-10T06:36:50.092Z,9.54
2022-11-10T06:39:11.829Z,9.53
2022-11-10T06:41:33.773Z,9.51
2022-11-10T06:43:56.012Z,9.50
2022-11-10T06:46:18.698Z,9.46
2022-11-10T06:48:40.234Z,9.44
2022-11-10T06:51:01.926Z,9.45
2022-11-10T06:53:26.946Z,9.47
2022-11-10T06:55:48.431Z,9.43
2022-11-10T06:58:10.112Z,9.43
2022-11-10T07:00:31.824Z,9.44
2022-11-10T07:03:01.635Z,9.48
2022-11-10T07:05:22.929Z,9.47
2022-11-10T07:07:45.092Z,9.50
2022-11-10T07:10:07.807Z,9.50
2022-11-10T07:12:29.087Z,9.46
2022-11-10T07:14:50.410Z,9.46
2022-11-10T07:17:11.857Z,9.47
2022-11-10T07:19:34.486Z,9.47
2022-11-10T07:21:56.061Z,9.47
2022-11-10T07:24:17.324Z,9.48
2022-11-10T07:26:38.829Z,9.49
2022-11-10T07:29:00.540Z,9.52
2022-11-10T07:31:22.181Z,9.53
2022-11-10T07:33:44.065Z,9.54
2022-11-10T07:36:08.074Z,9.56
2022-11-10T07:38:29.444Z,9.58
2022-11-10T07:40:53.167Z,9.62
2022-11-10T07:43:14.526Z,9.66
2022-11-10T07:45:36.366Z,9.67
2022-11-10T07:48:00.452Z,9.64
2022-11-10T07:50:22.043Z,9.63
2022-11-10T07:52:44.860Z,9.57
2022-11-10T07:55:07.686Z,9.61
2022-11-10T07:57:29.231Z,9.69
2022-11-10T07:59:52.857Z,9.78
2022-11-10T08:02:16.683Z,9.83
2022-11-10T08:04:38.052Z,9.85
2022-11-10T08:06:59.687Z,9.87
2022-11-10T08:09:22.335Z,9.84
2022-11-10T08:11:43.943Z,9.86
2022-11-10T08:14:05.449Z,9.90
2022-11-10T08:16:27.009Z,9.94
2022-11-10T08:18:48.637Z,9.99
2022-11-10T08:21:10.166Z,9.96
2022-11-10T08:23:32.170Z,10.02
2022-11-10T08:25:55.157Z,10.13
2022-11-10T08:28:19.484Z,10.18
2022-11-10T08:30:42.820Z,10.11
2022-11-10T08:33:05.867Z,10.04
2022-11-10T08:35:28.644Z,10.02
2022-11-10T08:37:50.291Z,10.02
2022-11-10T08:40:13.007Z,10.08
2022-11-10T08:42:35.751Z,10.14
2022-11-10T08:44:56.903Z,10.22
2022-11-10T08:47:18.477Z,10.34
2022-11-10T08:49:39.960Z,10.44
2022-11-10T08:52:01.409Z,10.50
2022-11-10T08:54:22.865Z,10.48
2022-11-10T08:56:44.445Z,10.54
2022-11-10T08:59:07.499Z,10.68
2022-11-10T09:01:29.249Z,10.69
2022-11-10T09:03:50.642Z,10.75
2022-11-10T09:06:12.233Z,10.87
2022-11-10T09:08:34.186Z,11.00
2022-11-10T09:10:55.873Z,11.05
2022-11-10T09:13:17.523Z,11.11
2022-11-10T09:15:41.445Z,11.14
2022-11-10T09:18:04.865Z,11.38
2022-11-10T09:20:27.034Z,11.37
2022-11-10T09:22:48.618Z,11.34
2022-11-10T09:25:10.459Z,11.35
2022-11-10T09:27:32.406Z,11.41
2022-11-10T09:29:53.943Z,11.59
2022-11-10T09:32:16.973Z,11.59
2022-11-10T09:34:38.461Z,11.63
2022-11-10T09:37:00.109Z,11.76
2022-11-10T09:39:21.437Z,11.73
2022-11-10T09:41:45.645Z,11.86
2022-11-10T09:44:13.184Z,11.89
2022-11-10T09:46:41.409Z,11.94
2022-11-10T09:49:11.205Z,12.03
2022-11-10T09:51:36.931Z,12.17
2022-11-10T09:53:59.949Z,12.25
2022-11-10T09:56:27.018Z,12.37
2022-11-10T09:58:48.605Z,12.36
2022-11-10T10:01:22.047Z,12.46
2022-11-10T10:03:49.376Z,12.44
2022-11-10T10:06:13.949Z,12.40
2022-11-10T10:08:53.665Z,12.47
2022-11-10T10:11:27.449Z,12.58
2022-11-10T10:14:05.580Z,12.52
2022-11-10T10:16:37.316Z,12.57
2022-11-10T10:19:06.628Z,12.62
2022-11-10T10:21:44.197Z,12.79
2022-11-10T10:24:13.973Z,12.82
2022-11-10T10:26:42.261Z,12.81
2022-11-10T10:29:10.345Z,12.80
2022-11-10T10:31:35.785Z,12.73
2022-11-10T10:33:57.489Z,12.74
2022-11-10T10:36:21.573Z,12.81
2022-11-10T10:38:47.334Z,12.85
2022-11-10T10:41:19.600Z,12.82
2022-11-10T10:43:49.700Z,12.88
2022-11-10T10:46:16.225Z,12.97
2022-11-10T10:48:37.450Z,13.10
2022-11-10T10:50:58.701Z,13.05
2022-11-10T10:53:22.401Z,13.15
2022-11-10T10:55:51.397Z,13.09
2022-11-10T10:58:22.457Z,13.18
2022-11-10T11:00:45.068Z,13.12
2022-11-10T11:03:08.836Z,13.15
2022-11-10T11:05:30.617Z,13.23
2022-11-10T11:07:56.338Z,13.27
2022-11-10T11:10:23.502Z,13.42
2022-11-10T11:12:46.364Z,13.44
2022-11-10T11:15:22.861Z,13.49
2022-11-10T11:17:55.047Z,13.48
2022-11-10T11:20:16.723Z,13.64
2022-11-10T11:22:52.212Z,13.85
2022-11-10T11:25:23.520Z,13.87
2022-11-10T11:27:55.114Z,13.76
2022-11-10T11:30:22.476Z,13.89
2022-11-10T11:33:01.627Z,13.87
2022-11-10T11:35:31.923Z,13.95
2022-11-10T11:38:07.274Z,13.98
2022-11-10T11:40:39.634Z,14.00
2022-11-10T11:43:10.572Z,13.99
2022-11-10T11:45:42.994Z,13.97
2022-11-10T11:48:20.355Z,13.79
2022-11-10T11:50:50.542Z,13.80
2022-11-10T11:53:27.285Z,13.99
2022-11-10T11:56:07.344Z,13.98
2022-11-10T11:58:42.110Z,13.82
2022-11-10T12:01:13.310Z,13.82
2022-11-10T12:03:49.868Z,13.74
2022-11-10T12:06:24.715Z,13.77
2022-11-10T12:08:55.741Z,13.85
2022-11-10T12:11:25.974Z,13.91
2022-11-10T12:13:58.938Z,13.82
2022-11-10T12:16:25.457Z,13.94
2022-11-10T12:18:51.096Z,13.94
2022-11-10T12:21:23.561Z,13.87
2022-11-10T12:23:57.649Z,13.86
2022-11-10T12:26:30.459Z,13.91
2022-11-10T12:29:00.448Z,13.87
2022-11-10T12:31:23.951Z,13.99
2022-11-10T12:33:50.887Z,13.95
2022-11-10T12:36:15.418Z,14.03
2022-11-10T12:38:45.193Z,14.11
2022-11-10T12:41:11.075Z,14.17
2022-11-10T12:43:40.465Z,14.11
2022-11-10T12:46:08.083Z,14.25
2022-11-10T12:48:35.605Z,14.28
2022-11-10T12:51:01.994Z,14.30
2022-11-10T12:53:25.529Z,14.37
2022-11-10T12:55:50.783Z,14.24
2022-11-10T12:58:14.508Z,14.25
2022-11-10T13:00:43.163Z,14.31
2022-11-10T13:03:06.457Z,14.20
2022-11-10T13:05:33.071Z,14.26
2022-11-10T13:08:13.129Z,14.23
2022-11-10T13:10:35.037Z,14.23
2022-11-10T13:13:00.773Z,14.28
2022-11-10T13:15:48.440Z,14.25
2022-11-10T13:18:12.504Z,14.21
2022-11-10T13:20:48.680Z,14.15
2022-11-10T13:23:26.669Z,14.22
2022-11-10T13:25:57.670Z,14.19
2022-11-10T13:29:02.960Z,14.14
2022-11-10T13:31:52.172Z,14.32
2022-11-10T13:34:29.167Z,14.32
2022-11-10T13:36:50.697Z,14.31
2022-11-10T13:39:24.543Z,14.32
2022-11-10T13:41:47.462Z,14.29
2022-11-10T13:44:23.869Z,14.30
2022-11-10T13:46:59.323Z,14.34
2022-11-10T13:49:38.441Z,14.28
2022-11-10T13:52:07.081Z,14.34
2022-11-10T13:54:54.496Z,14.27
2022-11-10T13:57:27.075Z,14.31
2022-11-10T13:59:52.937Z,14.25
2022-11-10T14:02:49.236Z,14.25
2022-11-10T14:06:12.019Z,14.27
2022-11-10T14:08:41.950Z,14.13
2022-11-10T14:11:07.537Z,14.14
2022-11-10T14:13:37.049Z,14.21
2022-11-10T14:15:59.386Z,14.21
2022-11-10T14:18:24.977Z,14.18
2022-11-10T14:20:49.132Z,14.20
2022-11-10T14:23:19.455Z,14.22
2022-11-10T14:25:44.817Z,14.21
2022-11-10T14:28:24.978Z,14.24
2022-11-10T14:30:52.064Z,14.14
2022-11-10T14:33:15.224Z,14.08
2022-11-10T14:35:48.068Z,14.08
2022-11-10T14:38:20.954Z,13.95
2022-11-10T14:40:44.566Z,14.00
2022-11-10T14:43:06.098Z,14.06
2022-11-10T14:45:29.230Z,14.08
2022-11-10T14:47:54.840Z,14.04
2022-11-10T14:50:19.255Z,13.93
2022-11-10T14:52:41.585Z,13.94
2022-11-10T14:55:14.156Z,13.93
2022-11-10T14:57:37.173Z,13.92
2022-11-10T14:59:58.631Z,13.84
2022-11-10T15:02:20.749Z,13.91
2022-11-10T15:04:45.835Z,13.86
2022-11-10T15:07:07.896Z,13.84
2022-11-10T15:09:31.548Z,13.82
2022-11-10T15:11:54.438Z,13.84
2022-11-10T15:14:41.244Z,13.78
2022-11-10T15:17:02.705Z,13.70
2022-11-10T15:19:28.237Z,13.66
2022-11-10T15:21:50.029Z,13.66
2022-11-10T15:24:12.146Z,13.59
2022-11-10T15:26:39.618Z,13.53
2022-11-10T15:29:01.329Z,13.52
2022-11-10T15:31:26.800Z,13.55
2022-11-10T15:33:50.627Z,13.50
2022-11-10T15:36:17.520Z,13.49
2022-11-10T15:38:39.145Z,13.45
2022-11-10T15:41:15.289Z,13.40
2022-11-10T15:43:36.755Z,13.31
2022-11-10T15:46:01.089Z,13.28
2022-11-10T15:48:24.977Z,13.30
2022-11-10T15:50:48.564Z,13.21
2022-11-10T15:53:15.457Z,13.17
2022-11-10T15:55:37.044Z,13.11
2022-11-10T15:57:58.512Z,13.09
2022-11-10T16:00:20.000Z,13.03
2022-11-10T16:02:43.203Z,12.98
2022-11-10T16:05:11.894Z,12.95
2022-11-10T16:07:36.220Z,12.88
2022-11-10T16:09:57.843Z,12.84
2022-11-10T16:12:21.203Z,12.80
2022-11-10T16:14:47.291Z,12.78
2022-11-10T16:17:10.934Z,12.76
2022-11-10T16:19:32.201Z,12.73
2022-11-10T16:21:55.123Z,12.69
2022-11-10T16:24:16.706Z,12.66
2022-11-10T16:26:38.379Z,12.65
2022-11-10T16:28:59.816Z,12.62
2022-11-10T16:31:22.447Z,12.57
2022-11-10T16:33:43.963Z,12.51
2022-11-10T16:36:05.802Z,12.45
2022-11-10T16:38:30.253Z,12.37
2022-11-10T16:40:55.524Z,12.33
2022-11-10T16:43:17.910Z,12.28
2022-11-10T16:45:43.582Z,12.23
2022-11-10T16:48:07.800Z,12.18
2022-11-10T16:50:34.860Z,12.16
2022-11-10T16:52:57.177Z,12.13
2022-11-10T16:55:19.930Z,12.11
2022-11-10T16:57:41.180Z,12.06
2022-11-10T17:00:03.234Z,12.04
2022-11-10T17:02:29.577Z,12.02
2022-11-10T17:04:51.358Z,11.95
2022-11-10T17:07:15.430Z,11.93
2022-11-10T17:09:37.150Z,11.87
2022-11-10T17:12:00.128Z,11.86
2022-11-10T17:14:21.721Z,11.83
2022-11-10T17:16:45.401Z,11.82
2022-11-10T17:19:08.707Z,11.82
2022-11-10T17:21:33.396Z,11.81
2022-11-10T17:23:55.413Z,11.79
2022-11-10T17:26:19.459Z,11.76
2022-11-10T17:28:42.086Z,11.72
2022-11-10T17:31:04.308Z,11.68
2022-11-10T17:33:26.438Z,11.62
2022-11-10T17:35:51.148Z,11.56
2022-11-10T17:38:14.059Z,11.50
2022-11-10T17:40:36.766Z,11.47
2022-11-10T17:42:58.305Z,11.43
2022-11-10T17:45:24.455Z,11.41
2022-11-10T17:47:46.344Z,11.37
2022-11-10T17:50:08.842Z,11.33
2022-11-10T17:52:30.414Z,11.28
2022-11-10T17:54:51.854Z,11.24
2022-11-10T17:57:13.353Z,11.22
2022-11-10T17:59:34.622Z,11.21
2022-11-10T18:01:58.098Z,11.20
2022-11-10T18:04:19.679Z,11.19
2022-11-10T18:06:41.352Z,11.17
2022-11-10T18:09:02.839Z,11.18
2022-11-10T18:11:27.388Z,11.17
2022-11-10T18:13:49.108Z,11.19
2022-11-10T18:16:11.950Z,11.18
2022-11-10T18:18:49.753Z,11.16
2022-11-10T18:21:12.140Z,11.13
2022-11-10T18:23:33.625Z,11.14
2022-11-10T18:25:54.875Z,11.12
2022-11-10T18:28:17.289Z,11.07
2022-11-10T18:30:39.231Z,10.98
2022-11-10T18:33:02.209Z,10.94
2022-11-10T18:35:24.765Z,10.91
2022-11-10T18:37:46.087Z,10.89
2022-11-10T18:40:08.930Z,10.87
2022-11-10T18:42:31.824Z,10.83
2022-11-10T18:44:54.699Z,10.81
2022-11-10T18:47:15.938Z,10.80
2022-11-10T18:49:37.506Z,10.76
2022-11-10T18:52:01.236Z,10.71
2022-11-10T18:54:23.350Z,10.64
2022-11-10T18:56:45.014Z,10.65
2022-11-10T18:59:06.246Z,10.65
2022-11-10T19:01:28.409Z,10.64
2022-11-10T19:03:50.675Z,10.64
2022-11-10T19:06:13.733Z,10.63
2022-11-10T19:08:37.115Z,10.62
2022-11-10T19:10:58.343Z,10.62
2022-11-10T19:13:20.000Z,10.60
2022-11-10T19:15:43.056Z,10.60
2022-11-10T19:18:04.924Z,10.61
2022-11-10T19:20:26.254Z,10.60
2022-11-10T19:22:47.430Z,10.61
2022-11-10T19:25:10.658Z,10.60
2022-11-10T19:27:31.881Z,10.60
2022-11-10T19:29:53.374Z,10.59
2022-11-10T19:32:14.792Z,10.55
2022-11-10T19:34:36.352Z,10.50
2022-11-10T19:36:57.762Z,10.48
2022-11-10T19:39:19.123Z,10.52
2022-11-10T19:41:42.057Z,10.44
2022-11-10T19:44:03.771Z,10.35
2022-11-10T19:46:27.559Z,10.35
2022-11-10T19:48:49.140Z,10.35
2022-11-10T19:51:13.770Z,10.36
2022-11-10T19:53:35.636Z,10.35
2022-11-10T19:56:01.920Z,10.36
2022-11-10T19:58:24.772Z,10.34
2022-11-10T20:00:47.602Z,10.31
2022-11-10T20:03:11.317Z,10.33
2022-11-10T20:05:32.817Z,10.30
2022-11-10T20:08:12.744Z,10.31
2022-11-10T20:10:33.804Z,10.27
2022-11-10T20:12:55.434Z,10.31
2022-11-10T20:15:18.320Z,10.26
2022-11-10T20:17:39.583Z,10.22
2022-11-10T20:20:31.799Z,10.26
2022-11-10T20:22:53.113Z,10.18
2022-11-10T20:25:14.928Z,10.19
2022-11-10T20:27:36.265Z,10.17
2022-11-10T20:29:57.462Z,10.12
2022-11-10T20:32:20.212Z,10.11
2022-11-10T20:34:41.682Z,10.12
2022-11-10T20:37:03.119Z,10.12
2022-11-10T20:39:24.730Z,10.10
2022-11-10T20:41:46.205Z,10.10
2022-11-10T20:44:07.748Z,10.05
2022-11-10T20:49:12.437Z,10.01
2022-11-10T20:51:34.093Z,10.00
2022-11-10T20:53:56.873Z,9.98
2022-11-10T20:56:18.448Z,9.92
2022-11-10T20:58:40.393Z,9.88
2022-11-10T21:01:02.761Z,9.88
2022-11-10T21:03:24.422Z,9.88
2022-11-10T21:05:47.385Z,9.86
2022-11-10T21:08:08.877Z,9.83
2022-11-10T21:14:06.392Z,9.77
2022-11-10T21:16:27.639Z,9.78
2022-11-10T21:18:49.123Z,9.78
2022-11-10T21:21:21.436Z,9.81
2022-11-10T21:23:42.839Z,9.77
2022-11-10T21:26:04.282Z,9.77
2022-11-10T21:28:26.180Z,9.74
2022-11-10T21:30:47.524Z,9.73
2022-11-10T21:33:09.246Z,9.72
2022-11-10T21:35:35.320Z,9.71
2022-11-10T21:38:00.600Z,9.69
2022-11-10T21:40:22.259Z,9.64
2022-11-10T21:42:43.848Z,9.59
2022-11-10T21:45:05.815Z,9.55
2022-11-10T21:47:27.467Z,9.53
2022-11-10T21:49:48.770Z,9.52
2022-11-10T21:52:10.085Z,9.47
2022-11-10T21:54:33.110Z,9.47
2022-11-10T21:56:54.447Z,9.44
2022-11-10T21:59:16.163Z,9.42
2022-11-10T22:01:38.196Z,9.45
2022-11-10T22:03:59.814Z,9.47
2022-11-10T22:06:21.352Z,9.42
2022-11-10T22:08:44.461Z,9.43
2022-11-10T22:11:29.837Z,9.39
2022-11-10T22:14:09.173Z,9.32
2022-11-10T22:16:51.982Z,9.28
2022-11-10T22:19:13.657Z,9.26
2022-11-10T22:21:35.065Z,9.28
2022-11-10T22:24:13.915Z,9.30
2022-11-10T22:26:36.916Z,9.27
2022-11-10T22:28:58.603Z,9.23
2022-11-10T22:31:20.348Z,9.22
2022-11-10T22:33:43.286Z,9.18
2022-11-10T22:36:05.856Z,9.16
2022-11-10T22:38:27.107Z,9.16
2022-11-10T22:41:06.174Z,9.16
2022-11-10T22:43:46.275Z,9.16
2022-11-10T22:46:08.983Z,9.14
2022-11-10T22:48:32.539Z,9.14
2022-11-10T22:50:58.315Z,9.13
2022-11-10T22:53:19.936Z,9.12
2022-11-10T22:55:41.343Z,9.11
2022-11-10T22:58:02.942Z,9.12
2022-11-10T23:00:25.771Z,9.13
2022-11-10T23:02:47.184Z,9.14
2022-11-10T23:05:09.269Z,9.15
2022-11-10T23:07:30.803Z,9.10
2022-11-10T23:09:52.380Z,9.05
2022-11-10T23:12:13.917Z,9.03
2022-11-10T23:14:35.699Z,9.01
2022-11-10T23:16:58.797Z,9.00
2022-11-10T23:19:20.376Z,8.93
2022-11-10T23:21:41.944Z,8.91
2022-11-10T23:24:03.565Z,8.93
2022-11-10T23:26:26.307Z,8.89
2022-11-10T23:28:48.232Z,8.93
2022-11-10T23:31:11.543Z,8.91
2022-11-10T23:33:34.702Z,8.89
2022-11-10T23:35:56.634Z,8.83
2022-11-10T23:38:18.042Z,8.83
2022-11-10T23:40:39.612Z,8.82
2022-11-10T23:43:01.203Z,8.84
2022-11-10T23:45:22.819Z,8.82
2022-11-10T23:47:44.387Z,8.82
2022-11-10T23:50:08.378Z,8.81
2022-11-10T23:52:29.531Z,8.78
2022-11-10T23:54:51.188Z,8.76
2022-11-10T23:57:12.649Z,8.75
2022-11-10T23:59:33.958Z,8.74
